Time;durP1;ratioP1;P1;durP2;ratioP2;P2;SDS_P1;SDS_P2;PMS_P1;PMS_P2;Temp;Humidity;BMP_temperature;BMP_pressure;BME280_temperature;BME280_humidity;BME280_pressure;Samples;Min_cycle;Max_cycle;Signal;HPM_P1;HPM_P2
2021/05/17 00:00:43;;;;;;;14.75;8.98;;;;;;;;;;5037754;28;20052;-92
2021/05/17 00:03:09;;;;;;;16.20;8.80;;;;;;;;;;5003987;28;20128;-92
2021/05/17 00:05:36;;;;;;;14.13;8.65;;;;;;;;;;5037103;28;20316;-87
2021/05/17 00:08:03;;;;;;;13.32;9.20;;;;;;;;;;5037431;28;20037;-87
2021/05/17 00:10:29;;;;;;;15.18;9.27;;;;;;;;;;5037520;28;20040;-88
2021/05/17 00:12:55;;;;;;;15.52;9.02;;;;;;;;;;5037416;28;20029;-88
2021/05/17 00:15:22;;;;;;;12.00;8.75;;;;;;;;;;5037340;28;20030;-87
2021/05/17 00:17:48;;;;;;;15.57;9.02;;;;;;;;;;5019965;28;20419;-87
2021/05/17 00:20:15;;;;;;;11.52;8.70;;;;;;;;;;5037557;28;20025;-87
2021/05/17 00:22:42;;;;;;;11.35;8.95;;;;;;;;;;5037293;28;20064;-87
2021/05/17 00:25:09;;;;;;;16.88;8.68;;;;;;;;;;5037371;28;20037;-87
2021/05/17 00:27:35;;;;;;;12.32;9.52;;;;;;;;;;5037039;28;20091;-85
2021/05/17 00:30:01;;;;;;;14.90;9.15;;;;;;;;;;5037128;28;20029;-86
2021/05/17 00:32:27;;;;;;;13.68;8.73;;;;;;;;;;5020021;28;20100;-88
2021/05/17 00:34:54;;;;;;;11.48;8.98;;;;;;;;;;5019726;28;20068;-89
2021/05/17 00:37:20;;;;;;;12.18;8.48;;;;;;;;;;5037522;28;20057;-89
2021/05/17 00:39:46;;;;;;;15.02;8.32;;;;;;;;;;5037298;28;20018;-89
2021/05/17 00:42:12;;;;;;;14.15;8.77;;;;;;;;;;5037159;28;20025;-88
2021/05/17 00:44:39;;;;;;;12.23;8.23;;;;;;;;;;5037046;28;20033;-88
2021/05/17 00:47:13;;;;;;;10.93;8.93;;;;;;;;;;5037341;28;20021;-88
2021/05/17 00:49:40;;;;;;;14.55;9.23;;;;;;;;;;5037018;28;20026;-88
2021/05/17 00:52:07;;;;;;;15.77;9.38;;;;;;;;;;5037176;28;20033;-88
2021/05/17 00:54:33;;;;;;;13.15;9.32;;;;;;;;;;5037345;28;20289;-89
2021/05/17 00:56:59;;;;;;;12.52;9.43;;;;;;;;;;5019622;28;20044;-88
2021/05/17 00:59:26;;;;;;;11.57;8.70;;;;;;;;;;5037249;28;20041;-87
2021/05/17 01:01:52;;;;;;;11.88;8.98;;;;;;;;;;5036982;28;20487;-87
2021/05/17 01:04:18;;;;;;;16.33;9.88;;;;;;;;;;5037017;28;20021;-87
2021/05/17 01:06:46;;;;;;;12.95;8.60;;;;;;;;;;5020309;28;20033;-87
2021/05/17 01:09:13;;;;;;;11.25;8.65;;;;;;;;;;5040443;28;20030;-87
2021/05/17 01:11:39;;;;;;;13.65;9.32;;;;;;;;;;5023302;28;20044;-88
2021/05/17 01:14:07;;;;;;;12.13;8.88;;;;;;;;;;5040111;28;20030;-87
2021/05/17 01:16:34;;;;;;;9.77;8.70;;;;;;;;;;5040516;28;20025;-87
2021/05/17 01:19:00;;;;;;;15.48;8.65;;;;;;;;;;5040446;28;20083;-86
2021/05/17 01:21:31;;;;;;;11.68;8.70;;;;;;;;;;5040471;28;20048;-86
2021/05/17 01:23:57;;;;;;;11.45;9.27;;;;;;;;;;5022798;28;20103;-85
2021/05/17 01:26:25;;;;;;;11.25;8.85;;;;;;;;;;5039995;28;20042;-87
2021/05/17 01:28:53;;;;;;;13.93;9.00;;;;;;;;;;5022818;28;20054;-87
2021/05/17 01:31:19;;;;;;;11.95;8.00;;;;;;;;;;5039966;28;20029;-87
2021/05/17 01:33:47;;;;;;;12.77;8.13;;;;;;;;;;5039945;28;20108;-86
2021/05/17 01:36:13;;;;;;;10.95;8.07;;;;;;;;;;5039913;28;20022;-85
2021/05/17 01:38:41;;;;;;;10.52;7.80;;;;;;;;;;5022636;28;20032;-86
2021/05/17 01:41:12;;;;;;;9.63;7.78;;;;;;;;;;5040003;28;20021;-88
2021/05/17 01:43:39;;;;;;;12.40;7.77;;;;;;;;;;5040025;28;20026;-85
2021/05/17 01:46:07;;;;;;;11.93;7.45;;;;;;;;;;5039786;28;20326;-85
2021/05/17 01:48:36;;;;;;;10.55;6.93;;;;;;;;;;5039688;28;20018;-87
2021/05/17 01:51:06;;;;;;;8.35;7.05;;;;;;;;;;5039741;28;20030;-88
2021/05/17 01:53:34;;;;;;;19.30;8.70;;;;;;;;;;5039650;28;20060;-87
2021/05/17 01:56:00;;;;;;;8.30;6.22;;;;;;;;;;5022149;28;20048;-87
2021/05/17 01:58:26;;;;;;;7.53;6.30;;;;;;;;;;5039784;28;20400;-86
2021/05/17 02:00:52;;;;;;;7.70;6.32;;;;;;;;;;5039533;28;20026;-87
2021/05/17 02:03:18;;;;;;;9.70;6.85;;;;;;;;;;5022006;28;20049;-87
2021/05/17 02:05:46;;;;;;;11.45;8.95;;;;;;;;;;5039348;28;20025;-87
2021/05/17 02:08:13;;;;;;;11.55;6.88;;;;;;;;;;5039459;28;20041;-90
2021/05/17 02:10:40;;;;;;;8.75;7.47;;;;;;;;;;5039240;28;20068;-89
2021/05/17 02:13:08;;;;;;;9.93;7.40;;;;;;;;;;5039360;28;20025;-89
2021/05/17 02:15:36;;;;;;;10.35;7.70;;;;;;;;;;5039302;28;20034;-89
2021/05/17 02:18:02;;;;;;;10.50;8.23;;;;;;;;;;5039323;28;20036;-89
2021/05/17 02:20:30;;;;;;;10.73;8.15;;;;;;;;;;5039323;28;20068;-88
2021/05/17 02:22:56;;;;;;;10.07;9.00;;;;;;;;;;5039280;28;20033;-88
2021/05/17 02:25:22;;;;;;;12.48;9.35;;;;;;;;;;5038874;28;20045;-89
2021/05/17 02:27:49;;;;;;;12.95;10.15;;;;;;;;;;5038904;28;20378;-89
2021/05/17 02:30:16;;;;;;;12.38;10.45;;;;;;;;;;5039003;28;20059;-88
2021/05/17 02:32:42;;;;;;;13.48;10.95;;;;;;;;;;5039108;28;20442;-88
2021/05/17 02:35:09;;;;;;;12.57;10.88;;;;;;;;;;5038867;28;20033;-89
2021/05/17 02:37:35;;;;;;;12.63;10.85;;;;;;;;;;5038911;28;20030;-87
2021/05/17 02:40:01;;;;;;;14.25;11.73;;;;;;;;;;5038870;28;20025;-89
2021/05/17 02:42:28;;;;;;;15.45;11.90;;;;;;;;;;5021360;28;20025;-86
2021/05/17 02:44:55;;;;;;;15.82;12.57;;;;;;;;;;5038701;28;20025;-86
2021/05/17 02:47:22;;;;;;;14.75;12.18;;;;;;;;;;5038741;28;20040;-86
2021/05/17 02:49:48;;;;;;;14.27;12.52;;;;;;;;;;5038723;28;20363;-88
2021/05/17 02:52:15;;;;;;;14.27;12.23;;;;;;;;;;5038546;28;20032;-87
2021/05/17 02:54:43;;;;;;;16.33;13.63;;;;;;;;;;5038503;28;20060;-87
2021/05/17 02:57:13;;;;;;;15.20;13.60;;;;;;;;;;5021198;28;20433;-87
2021/05/17 03:00:02;;;;;;;14.48;12.95;;;;;;;;;;5038404;28;20057;-89
2021/05/17 03:02:30;;;;;;;16.23;13.82;;;;;;;;;;5038452;28;20022;-86
2021/05/17 03:04:57;;;;;;;15.20;13.60;;;;;;;;;;5020896;28;20029;-87
2021/05/17 03:07:24;;;;;;;16.38;13.90;;;;;;;;;;5038591;28;20374;-88
2021/05/17 03:09:51;;;;;;;15.40;13.63;;;;;;;;;;5038424;28;20033;-87
2021/05/17 03:12:20;;;;;;;18.38;13.93;;;;;;;;;;5038422;28;20029;-90
2021/05/17 03:14:46;;;;;;;16.45;14.75;;;;;;;;;;5020868;28;20031;-88
2021/05/17 03:17:12;;;;;;;18.83;15.15;;;;;;;;;;5038007;28;20030;-86
2021/05/17 03:19:38;;;;;;;17.67;14.48;;;;;;;;;;5038056;28;20025;-87
2021/05/17 03:22:06;;;;;;;16.85;14.00;;;;;;;;;;5037828;28;20025;-86
2021/05/17 03:24:34;;;;;;;18.05;14.02;;;;;;;;;;5020640;28;20025;-86
2021/05/17 03:27:13;;;;;;;16.90;14.32;;;;;;;;;;5037946;28;20049;-87
2021/05/17 03:29:39;;;;;;;17.52;14.30;;;;;;;;;;5037775;28;20049;-87
2021/05/17 03:32:06;;;;;;;17.05;14.93;;;;;;;;;;5037940;28;20030;-89
2021/05/17 03:34:32;;;;;;;19.30;14.63;;;;;;;;;;5020040;28;20332;-89
2021/05/17 03:36:58;;;;;;;15.57;14.02;;;;;;;;;;5020474;28;20026;-88
2021/05/17 03:39:24;;;;;;;19.45;15.25;;;;;;;;;;5037715;28;20025;-87
2021/05/17 03:41:50;;;;;;;19.83;15.90;;;;;;;;;;5037701;28;20083;-87
2021/05/17 03:44:16;;;;;;;21.13;15.35;;;;;;;;;;5037640;28;20068;-88
2021/05/17 03:46:42;;;;;;;19.35;16.10;;;;;;;;;;5020320;28;20163;-87
2021/05/17 03:49:08;;;;;;;16.73;14.50;;;;;;;;;;5037654;28;20060;-88
2021/05/17 03:51:34;;;;;;;16.73;14.23;;;;;;;;;;5037497;28;20136;-88
2021/05/17 03:54:00;;;;;;;16.67;14.23;;;;;;;;;;5020309;28;20029;-88
2021/05/17 03:56:26;;;;;;;17.52;15.45;;;;;;;;;;5037644;28;20030;-87
2021/05/17 03:58:52;;;;;;;16.10;14.27;;;;;;;;;;5037774;28;20034;-89
2021/05/17 04:01:19;;;;;;;15.68;13.98;;;;;;;;;;5020234;28;20108;-89
2021/05/17 04:03:45;;;;;;;18.88;14.85;;;;;;;;;;5019857;28;20025;-90
2021/05/17 04:14:27;;;;;;;18.48;14.07;;;;;;;;;;4977136;28;20054;-88
2021/05/17 04:16:53;;;;;;;16.40;14.60;;;;;;;;;;4977117;28;20090;-89
2021/05/17 04:19:19;;;;;;;17.27;15.30;;;;;;;;;;4976957;28;20533;-88
2021/05/17 04:21:46;;;;;;;18.95;14.93;;;;;;;;;;4977064;28;20054;-89
2021/05/17 04:24:12;;;;;;;17.65;15.60;;;;;;;;;;4976990;28;20022;-90
2021/05/17 04:26:38;;;;;;;18.50;14.65;;;;;;;;;;4976627;28;20046;-89
2021/05/17 04:29:04;;;;;;;16.10;14.40;;;;;;;;;;4976964;28;20030;-90
2021/05/17 04:31:30;;;;;;;21.15;15.40;;;;;;;;;;4960522;28;20098;-91
2021/05/17 04:33:56;;;;;;;18.95;15.23;;;;;;;;;;4960683;28;20133;-88
2021/05/17 04:36:23;;;;;;;17.23;14.05;;;;;;;;;;4977046;28;20046;-89
2021/05/17 04:38:49;;;;;;;17.27;14.50;;;;;;;;;;4960602;28;20039;-90
2021/05/17 04:41:15;;;;;;;15.48;13.75;;;;;;;;;;4977042;28;20031;-91
2021/05/17 04:43:41;;;;;;;15.57;14.07;;;;;;;;;;4980649;28;20503;-85
2021/05/17 04:46:07;;;;;;;15.60;14.00;;;;;;;;;;5022570;28;20470;-85
2021/05/17 04:48:33;;;;;;;15.38;13.85;;;;;;;;;;5023508;28;20025;-86
2021/05/17 04:50:59;;;;;;;18.70;14.07;;;;;;;;;;5022904;28;20076;-87
2021/05/17 04:53:25;;;;;;;18.10;13.85;;;;;;;;;;5026718;28;20032;-86
2021/05/17 04:55:51;;;;;;;17.55;13.65;;;;;;;;;;5040925;28;20025;-86
2021/05/17 04:58:17;;;;;;;14.90;13.50;;;;;;;;;;5040684;28;20029;-87
2021/05/17 05:00:43;;;;;;;16.42;14.30;;;;;;;;;;5023267;28;20025;-88
2021/05/17 05:03:09;;;;;;;15.10;13.50;;;;;;;;;;5040992;28;20041;-87
2021/05/17 05:05:35;;;;;;;17.63;14.40;;;;;;;;;;5040481;28;20024;-87
2021/05/17 05:08:01;;;;;;;17.33;14.07;;;;;;;;;;5023095;28;20033;-89
2021/05/17 05:10:28;;;;;;;14.75;13.25;;;;;;;;;;5040639;28;20388;-87
2021/05/17 05:12:54;;;;;;;17.38;13.80;;;;;;;;;;5022765;28;20036;-87
2021/05/17 05:15:20;;;;;;;17.80;15.90;;;;;;;;;;5040358;28;20100;-90
2021/05/17 05:17:46;;;;;;;19.38;15.73;;;;;;;;;;5040640;28;20029;-90
2021/05/17 05:20:12;;;;;;;19.23;15.77;;;;;;;;;;5022836;28;20034;-89
2021/05/17 05:22:38;;;;;;;18.52;15.70;;;;;;;;;;5040337;28;20025;-88
2021/05/17 05:25:06;;;;;;;18.88;16.80;;;;;;;;;;5040339;28;20100;-89
2021/05/17 05:27:37;;;;;;;23.48;17.55;;;;;;;;;;5040039;28;20068;-89
2021/05/17 05:32:37;;;;;;;21.30;18.05;;;;;;;;;;5040202;28;20034;-87
2021/05/17 05:35:03;;;;;;;23.50;17.95;;;;;;;;;;5040173;28;20104;-88
2021/05/17 05:37:30;;;;;;;24.70;17.40;;;;;;;;;;5040446;28;20038;-90
2021/05/17 05:39:56;;;;;;;18.58;16.63;;;;;;;;;;5039974;28;20076;-90
2021/05/17 05:42:24;;;;;;;24.77;18.13;;;;;;;;;;5040354;28;20022;-89
2021/05/17 05:44:50;;;;;;;19.65;17.50;;;;;;;;;;5040151;28;20390;-89
2021/05/17 05:47:17;;;;;;;19.25;16.35;;;;;;;;;;5022006;28;20036;-88
2021/05/17 05:49:44;;;;;;;20.33;16.50;;;;;;;;;;5039914;28;20025;-88
2021/05/17 05:52:10;;;;;;;17.85;15.48;;;;;;;;;;5039497;28;20437;-88
2021/05/17 05:54:37;;;;;;;23.75;19.02;;;;;;;;;;5039534;28;20033;-89
2021/05/17 05:57:03;;;;;;;22.75;16.70;;;;;;;;;;5039622;28;20029;-89
2021/05/17 05:59:30;;;;;;;19.20;16.77;;;;;;;;;;5039203;28;20031;-79
2021/05/17 06:01:56;;;;;;;19.75;15.82;;;;;;;;;;5039224;28;20354;-80
2021/05/17 06:04:22;;;;;;;19.90;16.95;;;;;;;;;;5021102;28;20112;-79
2021/05/17 06:06:49;;;;;;;27.13;20.23;;;;;;;;;;5038967;28;20324;-79
2021/05/17 06:09:15;;;;;;;29.30;22.58;;;;;;;;;;5038867;28;20032;-79
2021/05/17 06:11:41;;;;;;;19.17;16.00;;;;;;;;;;5021290;28;20029;-79
2021/05/17 06:14:08;;;;;;;18.90;15.52;;;;;;;;;;5020811;28;20036;-79
2021/05/17 06:16:34;;;;;;;17.88;14.25;;;;;;;;;;5038777;28;20075;-79
2021/05/17 06:19:01;;;;;;;20.17;14.98;;;;;;;;;;5038641;28;20399;-79
2021/05/17 06:21:28;;;;;;;13.57;11.90;;;;;;;;;;5038833;28;20029;-80
2021/05/17 06:23:57;;;;;;;15.93;12.35;;;;;;;;;;5021076;28;20032;-79
2021/05/17 06:26:29;;;;;;;17.27;13.80;;;;;;;;;;5038167;28;20451;-79
2021/05/17 06:28:55;;;;;;;;;;;;;;;;;;5038965;28;20026;-80
2021/05/17 06:31:22;;;;;;;15.55;11.70;;;;;;;;;;5038241;28;19909;-79
2021/05/17 06:33:49;;;;;;;16.00;11.10;;;;;;;;;;5038355;28;20347;-79
2021/05/17 06:36:16;;;;;;;21.35;13.77;;;;;;;;;;5038177;28;20018;-80
2021/05/17 06:38:43;;;;;;;19.00;12.30;;;;;;;;;;5038120;28;20022;-79
2021/05/17 06:41:09;;;;;;;20.10;11.50;;;;;;;;;;5038387;28;20064;-79
2021/05/17 06:43:36;;;;;;;18.75;12.82;;;;;;;;;;5019879;28;20335;-79
2021/05/17 06:46:03;;;;;;;17.88;13.68;;;;;;;;;;5038401;28;20021;-79
2021/05/17 06:48:29;;;;;;;14.20;11.20;;;;;;;;;;5038068;28;20029;-79
2021/05/17 06:50:55;;;;;;;15.70;11.43;;;;;;;;;;5037982;28;20052;-79
2021/05/17 06:53:23;;;;;;;13.52;11.68;;;;;;;;;;5038009;28;20048;-79
2021/05/17 06:56:04;;;;;;;14.77;12.27;;;;;;;;;;5019948;28;20045;-79
2021/05/17 06:58:36;;;;;;;16.00;11.07;;;;;;;;;;5037794;28;20483;-78
2021/05/17 07:01:02;;;;;;;;;;;;;;;;;;5038343;28;20045;-79
2021/05/17 07:03:28;;;;;;;12.98;10.13;;;;;;;;;;5037931;28;19911;-79
2021/05/17 07:05:55;;;;;;;15.77;11.70;;;;;;;;;;5036987;28;20024;-79
2021/05/17 07:13:51;;;;;;;20.45;15.07;;;;;;;;;;5036104;28;20138;-79
2021/05/17 07:16:17;;;;;;;17.55;12.23;;;;;;;;;;5036245;28;20021;-79
2021/05/17 07:18:44;;;;;;;19.25;12.23;;;;;;;;;;5019495;28;20327;-79
2021/05/17 07:23:42;;;;;;;24.42;16.13;;;;;;;;;;5037509;28;20022;-80
2021/05/17 07:26:16;;;;;;;19.42;13.25;;;;;;;;;;5037198;28;20427;-81
2021/05/17 07:28:43;;;;;;;12.57;10.27;;;;;;;;;;5037418;28;20323;-80
2021/05/17 07:31:10;;;;;;;17.10;10.30;;;;;;;;;;5037484;28;20025;-80
2021/05/17 07:33:37;;;;;;;11.77;10.48;;;;;;;;;;5037272;28;20021;-80
2021/05/17 07:36:04;;;;;;;20.17;14.02;;;;;;;;;;5037246;28;20029;-80
2021/05/17 07:38:32;;;;;;;31.98;23.70;;;;;;;;;;5037097;28;20033;-80
2021/05/17 07:40:58;;;;;;;33.85;21.75;;;;;;;;;;5037511;28;20017;-80
2021/05/17 07:43:24;;;;;;;33.90;25.60;;;;;;;;;;5036985;28;20059;-79
2021/05/17 07:45:51;;;;;;;38.47;26.90;;;;;;;;;;5037208;28;20022;-79
2021/05/17 07:48:17;;;;;;;118.20;85.30;;;;;;;;;;5037089;28;20022;-79
2021/05/17 07:50:44;;;;;;;104.50;73.60;;;;;;;;;;5037138;28;20041;-80
2021/05/17 07:53:11;;;;;;;73.55;52.55;;;;;;;;;;5019065;28;20132;-79
2021/05/17 07:55:38;;;;;;;112.40;81.88;;;;;;;;;;5036066;28;20108;-80
2021/05/17 07:58:04;;;;;;;71.35;50.85;;;;;;;;;;5036579;28;20033;-79
2021/05/17 08:00:30;;;;;;;79.55;56.70;;;;;;;;;;5036592;28;20053;-78
2021/05/17 08:02:56;;;;;;;76.80;55.58;;;;;;;;;;5036848;28;20013;-78
2021/05/17 08:05:22;;;;;;;34.95;23.77;;;;;;;;;;5036865;28;20022;-79
2021/05/17 08:07:48;;;;;;;69.25;49.55;;;;;;;;;;5036858;28;20427;-80
2021/05/17 08:10:15;;;;;;;53.08;38.42;;;;;;;;;;5018841;28;20396;-79
2021/05/17 08:12:41;;;;;;;77.43;55.72;;;;;;;;;;5036935;28;20036;-79
2021/05/17 08:15:08;;;;;;;43.58;30.67;;;;;;;;;;5036851;28;20044;-80
2021/05/17 08:17:34;;;;;;;61.95;43.42;;;;;;;;;;5023379;28;20029;-78
2021/05/17 08:20:01;;;;;;;48.63;33.38;;;;;;;;;;5040819;28;20036;-80
2021/05/17 08:22:27;;;;;;;40.13;28.95;;;;;;;;;;5040550;28;20064;-83
2021/05/17 08:24:55;;;;;;;32.25;21.67;;;;;;;;;;5023215;28;20403;-80
2021/05/17 08:27:21;;;;;;;39.45;27.40;;;;;;;;;;5040752;28;20312;-80
2021/05/17 08:29:47;;;;;;;28.80;20.42;;;;;;;;;;5040794;28;20384;-80
2021/05/17 08:32:13;;;;;;;43.97;30.02;;;;;;;;;;5040595;28;20323;-80
2021/05/17 08:34:39;;;;;;;18.60;12.77;;;;;;;;;;5040671;28;20313;-80
2021/05/17 08:37:05;;;;;;;40.45;27.08;;;;;;;;;;5040489;28;20025;-80
2021/05/17 08:39:31;;;;;;;50.03;32.85;;;;;;;;;;5022920;28;20026;-80
2021/05/17 08:41:58;;;;;;;58.42;38.38;;;;;;;;;;5040526;28;20022;-80
2021/05/17 08:44:25;;;;;;;106.40;65.22;;;;;;;;;;5040527;28;20096;-80
2021/05/17 08:46:51;;;;;;;50.95;30.17;;;;;;;;;;5040367;28;20074;-80
2021/05/17 08:49:18;;;;;;;78.05;52.25;;;;;;;;;;5040308;28;20112;-80
2021/05/17 08:51:45;;;;;;;17.42;13.05;;;;;;;;;;5040191;28;20025;-79
2021/05/17 08:54:11;;;;;;;19.60;12.15;;;;;;;;;;5040571;28;20025;-80
2021/05/17 08:56:43;;;;;;;27.10;18.90;;;;;;;;;;5040054;28;20163;-78
2021/05/17 08:59:09;;;;;;;23.55;15.98;;;;;;;;;;5040223;28;20095;-78
2021/05/17 09:01:36;;;;;;;26.15;17.75;;;;;;;;;;5040180;28;20092;-78
2021/05/17 09:04:06;;;;;;;11.20;6.95;;;;;;;;;;5039955;28;20025;-78
2021/05/17 09:07:01;;;;;;;17.88;11.60;;;;;;;;;;5039945;28;20021;-78
2021/05/17 09:09:27;;;;;;;9.70;7.43;;;;;;;;;;4960010;29;20038;-78
2021/05/17 09:11:58;;;;;;;11.63;7.43;;;;;;;;;;4959891;29;20035;-78
2021/05/17 09:14:24;;;;;;;12.35;9.57;;;;;;;;;;4959854;29;20130;-78
2021/05/17 09:16:55;;;;;;;9.50;5.28;;;;;;;;;;4959795;29;20037;-79
2021/05/17 09:19:22;;;;;;;10.65;7.35;;;;;;;;;;4959673;29;20054;-78
2021/05/17 09:22:20;;;;;;;16.08;11.05;;;;;;;;;;4959761;29;20073;-78
2021/05/17 09:24:47;;;;;;;6.57;4.72;;;;;;;;;;4940466;29;20028;-78
2021/05/17 09:27:14;;;;;;;13.10;5.57;;;;;;;;;;4955427;28;20051;-79
2021/05/17 09:29:51;;;;;;;6.43;5.38;;;;;;;;;;4940510;29;20048;-78
2021/05/17 09:32:25;;;;;;;5.97;5.35;;;;;;;;;;4940412;29;20046;-78
2021/05/17 09:35:01;;;;;;;6.00;4.78;;;;;;;;;;4940185;29;20442;-78
2021/05/17 09:37:28;;;;;;;8.57;6.97;;;;;;;;;;4940219;29;20032;-78
2021/05/17 09:39:54;;;;;;;5.63;4.38;;;;;;;;;;4940335;29;20032;-78
2021/05/17 09:42:22;;;;;;;5.47;4.47;;;;;;;;;;4940279;29;20039;-78
2021/05/17 09:44:49;;;;;;;8.57;6.00;;;;;;;;;;4944799;28;20036;-78
2021/05/17 09:47:19;;;;;;;6.70;5.00;;;;;;;;;;4997974;28;20401;-78
2021/05/17 09:49:48;;;;;;;7.30;4.95;;;;;;;;;;4998073;28;20057;-78
2021/05/17 09:52:22;;;;;;;6.65;4.70;;;;;;;;;;4998023;28;20073;-78
2021/05/17 09:55:06;;;;;;;7.03;4.35;;;;;;;;;;4997980;28;20053;-78
2021/05/17 09:57:32;;;;;;;7.35;4.60;;;;;;;;;;4981476;28;20030;-78
2021/05/17 10:00:00;;;;;;;4.75;4.20;;;;;;;;;;4983162;28;20026;-78
2021/05/17 10:02:49;;;;;;;6.82;4.93;;;;;;;;;;5021580;28;20430;-78
2021/05/17 10:05:21;;;;;;;10.77;5.95;;;;;;;;;;4978153;28;20034;-79
2021/05/17 10:07:49;;;;;;;8.15;4.90;;;;;;;;;;4978573;28;20046;-82
2021/05/17 10:10:15;;;;;;;13.10;7.10;;;;;;;;;;4978622;28;20444;-83
2021/05/17 10:12:42;;;;;;;9.02;5.90;;;;;;;;;;4978368;28;20059;-83
2021/05/17 10:15:10;;;;;;;7.90;5.40;;;;;;;;;;4978710;28;20035;-84
2021/05/17 10:17:37;;;;;;;7.68;4.95;;;;;;;;;;4978178;28;20431;-83
2021/05/17 10:20:05;;;;;;;6.72;5.20;;;;;;;;;;4978257;28;20069;-82
2021/05/17 10:22:31;;;;;;;8.05;5.55;;;;;;;;;;4978315;28;20046;-83
2021/05/17 10:24:58;;;;;;;5.15;4.65;;;;;;;;;;4978191;28;20027;-83
2021/05/17 10:27:25;;;;;;;5.43;4.90;;;;;;;;;;4978013;28;20046;-82
2021/05/17 10:29:52;;;;;;;7.43;5.45;;;;;;;;;;4978169;28;20125;-82
2021/05/17 10:32:18;;;;;;;6.55;5.30;;;;;;;;;;4978150;28;20059;-82
2021/05/17 10:34:48;;;;;;;7.80;5.50;;;;;;;;;;4977858;28;20034;-82
2021/05/17 10:37:18;;;;;;;8.07;6.00;;;;;;;;;;4977934;28;20115;-83
2021/05/17 10:39:47;;;;;;;8.23;6.75;;;;;;;;;;4976832;28;20026;-83
2021/05/17 10:42:31;;;;;;;8.35;5.65;;;;;;;;;;5008511;28;20045;-83
2021/05/17 10:47:50;;;;;;;6.32;4.70;;;;;;;;;;5038753;28;20040;-82
2021/05/17 10:50:21;;;;;;;6.78;4.82;;;;;;;;;;5038320;28;20033;-83
2021/05/17 10:52:48;;;;;;;6.07;4.43;;;;;;;;;;5038332;28;20100;-82
2021/05/17 10:55:15;;;;;;;8.13;5.10;;;;;;;;;;5038132;28;20197;-82
2021/05/17 11:00:31;;;;;;;13.15;5.88;;;;;;;;;;5038667;28;20036;-82
2021/05/17 11:03:21;;;;;;;7.15;5.32;;;;;;;;;;5038597;28;20424;-92
2021/05/17 11:05:49;;;;;;;12.20;6.72;;;;;;;;;;5038113;28;20416;-86
2021/05/17 11:08:16;;;;;;;11.43;7.72;;;;;;;;;;5020731;28;20037;-86
2021/05/17 11:10:50;;;;;;;12.98;7.47;;;;;;;;;;5038319;28;20025;-87
2021/05/17 11:13:17;;;;;;;12.48;7.00;;;;;;;;;;5020663;28;20435;-84
2021/05/17 11:15:57;;;;;;;22.30;8.52;;;;;;;;;;5038165;28;20036;-86
2021/05/17 11:18:30;;;;;;;14.80;9.38;;;;;;;;;;5038220;28;20420;-86
2021/05/17 11:20:56;;;;;;;13.32;8.35;;;;;;;;;;5037987;28;20068;-86
2021/05/17 11:23:25;;;;;;;11.35;8.02;;;;;;;;;;5038005;28;20487;-86
2021/05/17 11:25:52;;;;;;;13.20;9.27;;;;;;;;;;5038017;28;20062;-86
2021/05/17 11:28:39;;;;;;;19.80;11.13;;;;;;;;;;5037811;28;20095;-85
2021/05/17 11:31:05;;;;;;;14.30;9.85;;;;;;;;;;4958020;29;20051;-86
2021/05/17 11:33:49;;;;;;;13.73;9.85;;;;;;;;;;4958074;29;20031;-86
2021/05/17 11:36:16;;;;;;;14.57;11.50;;;;;;;;;;4958080;29;20438;-87
2021/05/17 11:39:00;;;;;;;18.58;13.60;;;;;;;;;;4957962;29;20359;-86
2021/05/17 11:41:28;;;;;;;24.33;17.02;;;;;;;;;;4958051;28;20094;-87
2021/05/17 11:43:59;;;;;;;24.02;15.40;;;;;;;;;;4958036;29;20027;-86
2021/05/17 11:46:25;;;;;;;21.98;15.00;;;;;;;;;;4957975;29;20043;-86
2021/05/17 11:48:51;;;;;;;24.50;16.90;;;;;;;;;;4957997;28;20035;-87
2021/05/17 11:51:18;;;;;;;20.45;13.52;;;;;;;;;;4973609;28;20051;-86
2021/05/17 11:53:47;;;;;;;24.83;17.27;;;;;;;;;;4958059;28;20031;-87
2021/05/17 11:56:13;;;;;;;26.23;17.70;;;;;;;;;;4957939;29;20325;-87
2021/05/17 11:58:39;;;;;;;21.38;14.85;;;;;;;;;;4973784;28;20047;-86
2021/05/17 12:01:14;;;;;;;25.13;16.73;;;;;;;;;;4957777;28;20031;-86
2021/05/17 12:03:41;;;;;;;24.00;17.63;;;;;;;;;;4957716;28;20026;-86
2021/05/17 12:06:07;;;;;;;21.35;16.13;;;;;;;;;;4957620;28;20023;-87
2021/05/17 12:08:34;;;;;;;19.58;14.82;;;;;;;;;;5011684;28;20036;-87
2021/05/17 12:11:00;;;;;;;16.27;14.60;;;;;;;;;;5037492;28;20036;-87
2021/05/17 12:13:26;;;;;;;19.30;15.93;;;;;;;;;;5037568;28;20017;-87
2021/05/17 12:15:52;;;;;;;21.48;17.55;;;;;;;;;;5020258;28;20108;-88
2021/05/17 12:18:19;;;;;;;16.17;14.15;;;;;;;;;;5020020;28;20025;-88
2021/05/17 12:20:46;;;;;;;27.80;19.63;;;;;;;;;;5037566;28;20018;-87
2021/05/17 12:23:12;;;;;;;15.80;14.10;;;;;;;;;;5037325;28;20036;-87
2021/05/17 12:25:38;;;;;;;18.35;14.55;;;;;;;;;;5019568;28;20034;-87
2021/05/17 12:28:04;;;;;;;27.55;19.13;;;;;;;;;;5037061;28;20080;-86
2021/05/17 12:30:31;;;;;;;18.17;13.30;;;;;;;;;;5019898;28;20036;-85
2021/05/17 12:33:00;;;;;;;23.33;14.00;;;;;;;;;;5019858;28;20029;-86
2021/05/17 12:35:30;;;;;;;18.92;12.05;;;;;;;;;;5037415;28;20067;-86
2021/05/17 12:37:58;;;;;;;23.08;14.43;;;;;;;;;;5037119;28;20037;-84
2021/05/17 12:40:27;;;;;;;27.00;15.85;;;;;;;;;;5019678;28;20033;-86
2021/05/17 12:43:07;;;;;;;31.23;18.92;;;;;;;;;;5019318;28;20061;-86
2021/05/17 12:45:33;;;;;;;30.65;19.75;;;;;;;;;;5019358;28;20091;-85
2021/05/17 12:48:00;;;;;;;26.92;18.42;;;;;;;;;;5019242;28;20331;-85
2021/05/17 12:50:27;;;;;;;34.97;25.48;;;;;;;;;;5037017;28;20025;-86
2021/05/17 12:53:05;;;;;;;32.20;21.63;;;;;;;;;;5019641;28;20088;-86
2021/05/17 12:55:42;;;;;;;23.70;20.73;;;;;;;;;;5036965;28;20040;-86
2021/05/17 12:58:08;;;;;;;46.05;33.08;;;;;;;;;;5019136;28;20041;-86
2021/05/17 13:00:36;;;;;;;23.92;18.30;;;;;;;;;;5019561;28;20110;-85
2021/05/17 13:03:06;;;;;;;14.25;11.35;;;;;;;;;;5038395;28;20028;-86
2021/05/17 13:05:50;;;;;;;42.10;26.02;;;;;;;;;;5040497;28;20025;-85
2021/05/17 13:08:17;;;;;;;56.28;34.45;;;;;;;;;;5040507;28;20029;-86
2021/05/17 13:11:00;;;;;;;50.92;32.85;;;;;;;;;;5040568;28;20030;-85
2021/05/17 13:13:46;;;;;;;21.15;14.23;;;;;;;;;;5040495;28;20545;-87
2021/05/17 13:16:13;;;;;;;10.65;5.55;;;;;;;;;;5040545;28;20037;-86
2021/05/17 13:18:51;;;;;;;19.58;7.25;;;;;;;;;;5040289;28;20087;-85
2021/05/17 13:21:22;;;;;;;17.52;7.38;;;;;;;;;;5040232;28;20151;-85
2021/05/17 13:24:24;;;;;;;6.90;2.70;;;;;;;;;;5040424;28;20067;-86
2021/05/17 13:32:31;;;;;;;15.50;2.65;;;;;;;;;;5040188;28;20454;-86
2021/05/17 13:34:57;;;;;;;17.95;2.20;;;;;;;;;;5022691;28;20418;-85
2021/05/17 13:37:23;;;;;;;14.27;1.65;;;;;;;;;;5039734;28;20034;-85
2021/05/17 13:39:49;;;;;;;6.70;1.85;;;;;;;;;;5040096;28;20033;-85
2021/05/17 13:42:16;;;;;;;4.63;1.85;;;;;;;;;;5040202;28;20017;-85
2021/05/17 13:44:42;;;;;;;9.65;2.40;;;;;;;;;;5022191;28;20029;-85
2021/05/17 13:47:08;;;;;;;10.77;1.60;;;;;;;;;;5039959;28;20408;-85
2021/05/17 13:49:34;;;;;;;5.93;2.35;;;;;;;;;;5039766;28;20034;-85
2021/05/17 13:52:00;;;;;;;11.63;4.72;;;;;;;;;;5040018;28;20045;-85
2021/05/17 13:54:27;;;;;;;21.13;10.20;;;;;;;;;;5022242;28;20112;-85
2021/05/17 13:56:53;;;;;;;10.93;4.20;;;;;;;;;;5021712;28;20040;-85
2021/05/17 13:59:19;;;;;;;8.95;2.67;;;;;;;;;;5039497;28;20053;-84
2021/05/17 14:01:45;;;;;;;19.23;8.98;;;;;;;;;;5039229;28;20408;-85
2021/05/17 14:04:11;;;;;;;5.75;2.67;;;;;;;;;;5021927;28;20032;-84
2021/05/17 14:06:37;;;;;;;5.10;2.83;;;;;;;;;;5039353;28;20073;-84
2021/05/17 14:09:04;;;;;;;7.45;6.72;;;;;;;;;;5039181;28;20026;-84
2021/05/17 14:11:30;;;;;;;17.13;10.50;;;;;;;;;;5039175;28;20064;-84
2021/05/17 14:13:56;;;;;;;17.30;12.23;;;;;;;;;;5021513;28;20024;-84
2021/05/17 14:16:22;;;;;;;8.07;5.03;;;;;;;;;;5021788;28;20025;-85
2021/05/17 14:18:48;;;;;;;4.40;2.00;;;;;;;;;;5038839;28;20075;-85
2021/05/17 14:21:15;;;;;;;2.67;1.50;;;;;;;;;;5039235;28;20052;-85
2021/05/17 14:23:41;;;;;;;4.45;2.75;;;;;;;;;;5039407;28;20076;-84
2021/05/17 14:26:07;;;;;;;2.30;1.35;;;;;;;;;;5021482;28;20404;-84
2021/05/17 14:28:33;;;;;;;4.93;3.20;;;;;;;;;;5021926;28;20088;-84
2021/05/17 14:30:59;;;;;;;6.93;3.20;;;;;;;;;;5021595;28;20033;-85
2021/05/17 14:33:25;;;;;;;4.40;1.27;;;;;;;;;;5038748;28;20104;-85
2021/05/17 14:35:51;;;;;;;10.75;4.10;;;;;;;;;;5038932;28;20021;-84
2021/05/17 14:38:17;;;;;;;13.40;8.07;;;;;;;;;;5038721;28;20064;-84
2021/05/17 14:40:43;;;;;;;17.08;8.95;;;;;;;;;;5038638;28;20027;-84
2021/05/17 14:43:10;;;;;;;9.52;4.72;;;;;;;;;;5038255;28;20025;-84
2021/05/17 14:45:36;;;;;;;9.88;2.90;;;;;;;;;;5038665;28;20025;-84
2021/05/17 14:48:02;;;;;;;7.65;3.40;;;;;;;;;;5038067;28;20029;-84
2021/05/17 14:50:28;;;;;;;9.65;5.38;;;;;;;;;;5038533;28;20348;-84
2021/05/17 14:52:54;;;;;;;5.95;2.47;;;;;;;;;;5038223;28;20025;-84
2021/05/17 14:55:20;;;;;;;3.72;2.10;;;;;;;;;;5038107;28;20431;-84
2021/05/17 14:57:46;;;;;;;4.63;1.50;;;;;;;;;;5038309;28;20404;-85
2021/05/17 15:00:15;;;;;;;2.33;1.45;;;;;;;;;;5038609;28;20087;-84